sensor_id;sensor_type;location;lat;lon;timestamp;pressure;altitude;pressure_sealevel;temperature;humidity
50672;BME280;46021;55.882;37.654;2023-01-19T00:00:02;99238.94;;;-1.10;86.18
50672;BME280;46021;55.882;37.654;2023-01-19T00:02:32;99247.47;;;-1.11;85.42
50672;BME280;46021;55.882;37.654;2023-01-19T00:04:59;99244.06;;;-1.13;85.94
50672;BME280;46021;55.882;37.654;2023-01-19T00:07:26;99232.13;;;-1.08;85.62
50672;BME280;46021;55.882;37.654;2023-01-19T00:09:55;99237.25;;;-1.08;86.43
50672;BME280;46021;55.882;37.654;2023-01-19T00:12:22;99231.31;;;-1.04;86.36
50672;BME280;46021;55.882;37.654;2023-01-19T00:14:51;99223.63;;;-1.04;85.20
50672;BME280;46021;55.882;37.654;2023-01-19T00:17:18;99225.38;;;-1.03;86.17
50672;BME280;46021;55.882;37.654;2023-01-19T00:19:45;99221.94;;;-1.05;85.64
50672;BME280;46021;55.882;37.654;2023-01-19T00:22:12;99221.03;;;-1.13;86.67
50672;BME280;46021;55.882;37.654;2023-01-19T00:24:39;99222.78;;;-1.09;86.00
50672;BME280;46021;55.882;37.654;2023-01-19T00:27:06;99228.72;;;-1.10;86.91
50672;BME280;46021;55.882;37.654;2023-01-19T00:29:33;99221.03;;;-1.13;87.28
50672;BME280;46021;55.882;37.654;2023-01-19T00:32:03;99233.84;;;-1.09;86.36
50672;BME280;46021;55.882;37.654;2023-01-19T00:34:31;99212.53;;;-1.08;87.27
50672;BME280;46021;55.882;37.654;2023-01-19T00:37:01;99213.31;;;-1.16;86.73
50672;BME280;46021;55.882;37.654;2023-01-19T00:39:28;99208.28;;;-1.04;86.98
50672;BME280;46021;55.882;37.654;2023-01-19T00:41:55;99227.06;;;-1.05;87.00
50672;BME280;46021;55.882;37.654;2023-01-19T00:44:48;99223.66;;;-1.01;87.99
50672;BME280;46021;55.882;37.654;2023-01-19T00:47:17;99224.50;;;-1.04;88.06
50672;BME280;46021;55.882;37.654;2023-01-19T00:49:44;99225.38;;;-1.02;87.00
50672;BME280;46021;55.882;37.654;2023-01-19T00:52:11;99227.06;;;-1.04;87.86
50672;BME280;46021;55.882;37.654;2023-01-19T00:54:38;99233.88;;;-1.04;87.76
50672;BME280;46021;55.882;37.654;2023-01-19T00:57:05;99210.00;;;-1.03;87.36
50672;BME280;46021;55.882;37.654;2023-01-19T00:59:32;99215.16;;;-1.00;87.32
50672;BME280;46021;55.882;37.654;2023-01-19T01:02:00;99207.44;;;-1.05;87.37
50672;BME280;46021;55.882;37.654;2023-01-19T01:04:28;99211.72;;;-1.02;87.70
50672;BME280;46021;55.882;37.654;2023-01-19T01:06:55;99196.38;;;-1.01;88.49
50672;BME280;46021;55.882;37.654;2023-01-19T01:09:22;99205.84;;;-0.92;88.23
50672;BME280;46021;55.882;37.654;2023-01-19T01:11:49;99198.13;;;-0.95;88.24
50672;BME280;46021;55.882;37.654;2023-01-19T01:14:16;99204.06;;;-0.99;87.78
50672;BME280;46021;55.882;37.654;2023-01-19T01:16:44;99215.16;;;-0.97;88.38
50672;BME280;46021;55.882;37.654;2023-01-19T01:19:11;99208.38;;;-0.93;88.57
50672;BME280;46021;55.882;37.654;2023-01-19T01:21:39;99199.03;;;-0.90;87.91
50672;BME280;46021;55.882;37.654;2023-01-19T01:24:08;99205.00;;;-0.88;88.15
50672;BME280;46021;55.882;37.654;2023-01-19T01:26:35;99195.56;;;-0.95;88.83
50672;BME280;46021;55.882;37.654;2023-01-19T01:29:04;99194.72;;;-0.94;88.60
50672;BME280;46021;55.882;37.654;2023-01-19T01:31:31;99188.75;;;-0.93;88.80
50672;BME280;46021;55.882;37.654;2023-01-19T01:33:58;99184.50;;;-0.94;88.63
50672;BME280;46021;55.882;37.654;2023-01-19T01:36:25;99204.13;;;-0.94;87.84
50672;BME280;46021;55.882;37.654;2023-01-19T01:38:59;99202.38;;;-1.00;88.05
50672;BME280;46021;55.882;37.654;2023-01-19T01:41:26;99210.94;;;-0.93;88.00
50672;BME280;46021;55.882;37.654;2023-01-19T01:43:55;99214.31;;;-0.98;89.03
50672;BME280;46021;55.882;37.654;2023-01-19T01:46:26;99228.81;;;-0.95;88.65
50672;BME280;46021;55.882;37.654;2023-01-19T01:48:56;99204.88;;;-1.06;89.34
50672;BME280;46021;55.882;37.654;2023-01-19T01:51:29;99218.50;;;-1.07;88.49
50672;BME280;46021;55.882;37.654;2023-01-19T01:54:05;99207.41;;;-1.06;89.48
50672;BME280;46021;55.882;37.654;2023-01-19T01:56:36;99221.06;;;-1.04;88.93
50672;BME280;46021;55.882;37.654;2023-01-19T01:59:06;99205.72;;;-1.07;88.84
50672;BME280;46021;55.882;37.654;2023-01-19T02:01:35;99217.63;;;-1.12;89.89
50672;BME280;46021;55.882;37.654;2023-01-19T02:04:20;99220.16;;;-1.12;89.08
50672;BME280;46021;55.882;37.654;2023-01-19T02:06:47;99187.78;;;-1.10;89.25
50672;BME280;46021;55.882;37.654;2023-01-19T02:09:35;99198.88;;;-1.08;89.18
50672;BME280;46021;55.882;37.654;2023-01-19T02:12:21;99204.81;;;-1.12;89.59
50672;BME280;46021;55.882;37.654;2023-01-19T02:15:12;99198.06;;;-1.04;89.72
50672;BME280;46021;55.882;37.654;2023-01-19T02:17:41;99214.22;;;-1.11;89.51
50672;BME280;46021;55.882;37.654;2023-01-19T02:20:09;99204.88;;;-1.09;88.92
50672;BME280;46021;55.882;37.654;2023-01-19T02:22:41;99207.38;;;-1.12;89.73
50672;BME280;46021;55.882;37.654;2023-01-19T02:25:11;99185.22;;;-1.13;89.31
50672;BME280;46021;55.882;37.654;2023-01-19T02:27:38;99169.91;;;-1.07;89.71
50672;BME280;46021;55.882;37.654;2023-01-19T02:30:07;99170.75;;;-1.08;89.23
50672;BME280;46021;55.882;37.654;2023-01-19T02:32:34;99183.53;;;-1.10;89.14
50672;BME280;46021;55.882;37.654;2023-01-19T02:35:01;99185.25;;;-1.07;89.51
50672;BME280;46021;55.882;37.654;2023-01-19T02:37:31;99202.34;;;-1.02;90.38
50672;BME280;46021;55.882;37.654;2023-01-19T02:40:03;99185.28;;;-1.06;89.77
50672;BME280;46021;55.882;37.654;2023-01-19T02:42:35;99190.44;;;-1.00;90.45
50672;BME280;46021;55.882;37.654;2023-01-19T02:45:04;99187.03;;;-0.97;89.99
50672;BME280;46021;55.882;37.654;2023-01-19T02:47:38;99188.69;;;-1.04;89.96
50672;BME280;46021;55.882;37.654;2023-01-19T02:50:36;99200.63;;;-1.04;90.33
50672;BME280;46021;55.882;37.654;2023-01-19T02:53:19;99203.19;;;-1.03;89.34
50672;BME280;46021;55.882;37.654;2023-01-19T02:55:52;99209.16;;;-1.05;89.71
50672;BME280;46021;55.882;37.654;2023-01-19T02:58:29;99194.63;;;-1.06;89.35
50672;BME280;46021;55.882;37.654;2023-01-19T03:01:07;99192.06;;;-1.11;90.36
50672;BME280;46021;55.882;37.654;2023-01-19T03:03:39;99181.84;;;-1.06;89.30
50672;BME280;46021;55.882;37.654;2023-01-19T03:06:16;99180.16;;;-1.04;90.55
50672;BME280;46021;55.882;37.654;2023-01-19T03:08:52;99189.47;;;-1.12;89.87
50672;BME280;46021;55.882;37.654;2023-01-19T03:11:21;99205.69;;;-1.10;90.31
50672;BME280;46021;55.882;37.654;2023-01-19T03:13:52;99181.81;;;-1.08;89.83
50672;BME280;46021;55.882;37.654;2023-01-19T03:16:21;99204.91;;;-1.03;90.60
50672;BME280;46021;55.882;37.654;2023-01-19T03:18:52;99214.22;;;-1.11;89.79
50672;BME280;46021;55.882;37.654;2023-01-19T03:21:22;99201.47;;;-1.07;89.99
50672;BME280;46021;55.882;37.654;2023-01-19T03:23:52;99193.78;;;-1.07;89.95
50672;BME280;46021;55.882;37.654;2023-01-19T03:26:25;99212.59;;;-1.02;90.57
50672;BME280;46021;55.882;37.654;2023-01-19T03:28:55;99200.66;;;-1.01;90.13
50672;BME280;46021;55.882;37.654;2023-01-19T03:31:26;99211.72;;;-1.05;89.55
50672;BME280;46021;55.882;37.654;2023-01-19T03:33:57;99222.00;;;-0.96;89.56
50672;BME280;46021;55.882;37.654;2023-01-19T03:36:30;99233.91;;;-1.01;90.34
50672;BME280;46021;55.882;37.654;2023-01-19T03:38:58;99238.97;;;-1.04;90.12
50672;BME280;46021;55.882;37.654;2023-01-19T03:41:27;99237.31;;;-0.99;90.07
50672;BME280;46021;55.882;37.654;2023-01-19T03:43:57;99235.63;;;-1.02;89.81
50672;BME280;46021;55.882;37.654;2023-01-19T03:46:25;99241.63;;;-0.98;89.07
50672;BME280;46021;55.882;37.654;2023-01-19T03:48:52;99238.97;;;-1.04;90.07
50672;BME280;46021;55.882;37.654;2023-01-19T03:51:21;99233.03;;;-1.05;89.95
50672;BME280;46021;55.882;37.654;2023-01-19T03:53:48;99232.19;;;-1.01;89.64
50672;BME280;46021;55.882;37.654;2023-01-19T03:56:20;99247.56;;;-0.99;89.71
50672;BME280;46021;55.882;37.654;2023-01-19T03:58:48;99256.09;;;-1.00;90.27
50672;BME280;46021;55.882;37.654;2023-01-19T04:01:17;99238.22;;;-0.95;90.41
50672;BME280;46021;55.882;37.654;2023-01-19T04:03:47;99268.06;;;-0.96;89.35
50672;BME280;46021;55.882;37.654;2023-01-19T04:06:14;99273.09;;;-1.02;89.95
50672;BME280;46021;55.882;37.654;2023-01-19T04:08:41;99278.28;;;-0.96;90.07
50672;BME280;46021;55.882;37.654;2023-01-19T04:11:08;99276.50;;;-1.06;89.42
50672;BME280;46021;55.882;37.654;2023-01-19T04:13:36;99292.78;;;-0.95;89.40
50672;BME280;46021;55.882;37.654;2023-01-19T04:16:04;99292.81;;;-0.92;89.63
50672;BME280;46021;55.882;37.654;2023-01-19T04:18:33;99305.63;;;-0.92;90.33
50672;BME280;46021;55.882;37.654;2023-01-19T04:21:00;99296.19;;;-0.98;90.34
50672;BME280;46021;55.882;37.654;2023-01-19T04:23:28;99292.81;;;-0.93;89.84
50672;BME280;46021;55.882;37.654;2023-01-19T04:25:59;99293.69;;;-0.90;89.55
50672;BME280;46021;55.882;37.654;2023-01-19T04:28:29;99286.88;;;-0.88;90.53
50672;BME280;46021;55.882;37.654;2023-01-19T04:30:56;99291.19;;;-0.82;90.72
50672;BME280;46021;55.882;37.654;2023-01-19T04:33:23;99283.47;;;-0.85;90.75
50672;BME280;46021;55.882;37.654;2023-01-19T04:35:52;99284.38;;;-0.83;89.89
50672;BME280;46021;55.882;37.654;2023-01-19T04:38:20;99296.28;;;-0.84;90.67
50672;BME280;46021;55.882;37.654;2023-01-19T04:40:48;99304.84;;;-0.83;90.15
50672;BME280;46021;55.882;37.654;2023-01-19T04:43:16;99290.34;;;-0.83;90.85
50672;BME280;46021;55.882;37.654;2023-01-19T04:45:43;99292.03;;;-0.82;89.73
50672;BME280;46021;55.882;37.654;2023-01-19T04:48:11;99285.25;;;-0.76;90.33
50672;BME280;46021;55.882;37.654;2023-01-19T04:50:38;99294.63;;;-0.79;89.81
50672;BME280;46021;55.882;37.654;2023-01-19T04:53:07;99286.13;;;-0.77;90.23
50672;BME280;46021;55.882;37.654;2023-01-19T04:55:35;99298.91;;;-0.77;89.63
50672;BME280;46021;55.882;37.654;2023-01-19T04:58:03;99282.69;;;-0.76;90.93
50672;BME280;46021;55.882;37.654;2023-01-19T05:00:30;99298.91;;;-0.74;90.29
50672;BME280;46021;55.882;37.654;2023-01-19T05:02:58;99312.59;;;-0.72;89.22
50672;BME280;46021;55.882;37.654;2023-01-19T05:05:25;99316.00;;;-0.73;90.45
50672;BME280;46021;55.882;37.654;2023-01-19T05:07:53;99298.94;;;-0.73;90.46
50672;BME280;46021;55.882;37.654;2023-01-19T05:10:21;99325.38;;;-0.72;90.58
50672;BME280;46021;55.882;37.654;2023-01-19T05:12:49;99333.03;;;-0.74;90.16
50672;BME280;46021;55.882;37.654;2023-01-19T05:15:16;99304.88;;;-0.79;89.64
50672;BME280;46021;55.882;37.654;2023-01-19T05:17:43;99336.53;;;-0.67;91.14
50672;BME280;46021;55.882;37.654;2023-01-19T05:20:11;99316.88;;;-0.70;90.77
50672;BME280;46021;55.882;37.654;2023-01-19T05:22:38;99335.69;;;-0.65;89.86
50672;BME280;46021;55.882;37.654;2023-01-19T05:25:06;99328.84;;;-0.67;89.66
50672;BME280;46021;55.882;37.654;2023-01-19T05:27:36;99323.72;;;-0.67;90.74
50672;BME280;46021;55.882;37.654;2023-01-19T05:30:04;99312.59;;;-0.72;90.24
50672;BME280;46021;55.882;37.654;2023-01-19T05:32:31;99324.63;;;-0.62;91.26
50672;BME280;46021;55.882;37.654;2023-01-19T05:34:58;99328.00;;;-0.63;91.16
50672;BME280;46021;55.882;37.654;2023-01-19T05:37:25;99318.63;;;-0.61;90.96
50672;BME280;46021;55.882;37.654;2023-01-19T05:39:52;99333.16;;;-0.57;90.12
50672;BME280;46021;55.882;37.654;2023-01-19T05:42:19;99344.28;;;-0.55;90.04
50672;BME280;46021;55.882;37.654;2023-01-19T05:44:48;99340.84;;;-0.57;90.64
50672;BME280;46021;55.882;37.654;2023-01-19T05:47:15;99322.00;;;-0.67;90.58
50672;BME280;46021;55.882;37.654;2023-01-19T05:49:42;99344.28;;;-0.55;90.96
50672;BME280;46021;55.882;37.654;2023-01-19T05:52:09;99344.31;;;-0.50;91.18
50672;BME280;46021;55.882;37.654;2023-01-19T05:54:36;99342.63;;;-0.48;90.97
50672;BME280;46021;55.882;37.654;2023-01-19T05:57:05;99348.66;;;-0.42;90.99
50672;BME280;46021;55.882;37.654;2023-01-19T05:59:32;99346.94;;;-0.43;90.40
50672;BME280;46021;55.882;37.654;2023-01-19T06:02:00;99362.34;;;-0.36;91.13
50672;BME280;46021;55.882;37.654;2023-01-19T06:04:28;99370.06;;;-0.33;90.76
50672;BME280;46021;55.882;37.654;2023-01-19T06:06:55;99383.69;;;-0.34;90.60
50672;BME280;46021;55.882;37.654;2023-01-19T06:09:22;99382.00;;;-0.32;91.36
50672;BME280;46021;55.882;37.654;2023-01-19T06:11:49;99372.63;;;-0.30;90.28
50672;BME280;46021;55.882;37.654;2023-01-19T06:14:18;99374.34;;;-0.29;91.64
50672;BME280;46021;55.882;37.654;2023-01-19T06:16:45;99383.75;;;-0.28;91.54
50672;BME280;46021;55.882;37.654;2023-01-19T06:19:14;99390.59;;;-0.27;90.20
50672;BME280;46021;55.882;37.654;2023-01-19T06:21:41;99381.19;;;-0.25;92.49
50672;BME280;46021;55.882;37.654;2023-01-19T06:24:14;99394.00;;;-0.27;91.19
50672;BME280;46021;55.882;37.654;2023-01-19T06:26:41;99408.50;;;-0.27;90.20
50672;BME280;46021;55.882;37.654;2023-01-19T06:29:08;99417.06;;;-0.28;90.72
50672;BME280;46021;55.882;37.654;2023-01-19T06:31:36;99418.81;;;-0.23;90.88
50672;BME280;46021;55.882;37.654;2023-01-19T06:34:03;99420.53;;;-0.15;91.71
50672;BME280;46021;55.882;37.654;2023-01-19T06:36:31;99420.59;;;-0.11;91.92
50672;BME280;46021;55.882;37.654;2023-01-19T06:38:58;99408.59;;;-0.18;91.67
50672;BME280;46021;55.882;37.654;2023-01-19T06:41:27;99411.19;;;-0.12;91.45
50672;BME280;46021;55.882;37.654;2023-01-19T06:43:55;99414.63;;;-0.11;91.99
50672;BME280;46021;55.882;37.654;2023-01-19T06:46:22;99408.69;;;-0.06;92.03
50672;BME280;46021;55.882;37.654;2023-01-19T06:48:50;99400.16;;;-0.03;91.73
50672;BME280;46021;55.882;37.654;2023-01-19T06:51:17;99408.72;;;0.01;90.89
50672;BME280;46021;55.882;37.654;2023-01-19T06:53:46;99413.84;;;0.04;90.71
50672;BME280;46021;55.882;37.654;2023-01-19T06:56:13;99413.88;;;0.07;92.15
50672;BME280;46021;55.882;37.654;2023-01-19T06:58:40;99408.75;;;0.07;92.40
50672;BME280;46021;55.882;37.654;2023-01-19T07:01:08;99418.97;;;0.01;91.68
50672;BME280;46021;55.882;37.654;2023-01-19T07:03:35;99418.97;;;0.04;91.54
50672;BME280;46021;55.882;37.654;2023-01-19T07:06:03;99429.22;;;0.01;91.06
50672;BME280;46021;55.882;37.654;2023-01-19T07:08:32;99430.94;;;0.05;92.06
50672;BME280;46021;55.882;37.654;2023-01-19T07:11:01;99425.84;;;0.08;91.72
50672;BME280;46021;55.882;37.654;2023-01-19T07:13:29;99439.53;;;0.14;91.68
50672;BME280;46021;55.882;37.654;2023-01-19T07:15:56;99439.56;;;0.17;91.41
50672;BME280;46021;55.882;37.654;2023-01-19T07:18:23;99438.69;;;0.17;90.97
50672;BME280;46021;55.882;37.654;2023-01-19T07:20:50;99434.44;;;0.16;90.72
50672;BME280;46021;55.882;37.654;2023-01-19T07:23:17;99437.84;;;0.18;90.60
50672;BME280;46021;55.882;37.654;2023-01-19T07:25:44;99424.22;;;0.19;90.99
50672;BME280;46021;55.882;37.654;2023-01-19T07:28:13;99440.44;;;0.24;92.59
50672;BME280;46021;55.882;37.654;2023-01-19T07:30:41;99439.56;;;0.21;91.78
50672;BME280;46021;55.882;37.654;2023-01-19T07:33:08;99437.81;;;0.15;91.90
50672;BME280;46021;55.882;37.654;2023-01-19T07:35:35;99449.84;;;0.19;90.73
50672;BME280;46021;55.882;37.654;2023-01-19T07:38:03;99451.59;;;0.25;90.72
50672;BME280;46021;55.882;37.654;2023-01-19T07:40:30;99441.25;;;0.17;92.23
50672;BME280;46021;55.882;37.654;2023-01-19T07:42:58;99459.22;;;0.20;92.20
50672;BME280;46021;55.882;37.654;2023-01-19T07:45:26;99475.50;;;0.25;91.41
50672;BME280;46021;55.882;37.654;2023-01-19T07:47:53;99489.19;;;0.27;91.86
50672;BME280;46021;55.882;37.654;2023-01-19T07:50:20;99478.94;;;0.27;91.72
50672;BME280;46021;55.882;37.654;2023-01-19T07:52:50;99479.78;;;0.28;91.29
50672;BME280;46021;55.882;37.654;2023-01-19T07:55:18;99493.44;;;0.28;91.53
50672;BME280;46021;55.882;37.654;2023-01-19T07:57:47;99489.22;;;0.30;91.89
50672;BME280;46021;55.882;37.654;2023-01-19T08:00:16;99492.66;;;0.32;91.36
50672;BME280;46021;55.882;37.654;2023-01-19T08:02:46;99484.91;;;0.26;92.41
50672;BME280;46021;55.882;37.654;2023-01-19T08:05:15;99499.47;;;0.33;92.99
50672;BME280;46021;55.882;37.654;2023-01-19T08:07:42;99507.16;;;0.30;91.36
50672;BME280;46021;55.882;37.654;2023-01-19T08:10:11;99496.06;;;0.34;91.43
50672;BME280;46021;55.882;37.654;2023-01-19T08:12:38;99501.19;;;0.31;91.46
50672;BME280;46021;55.882;37.654;2023-01-19T08:15:06;99504.56;;;0.27;91.90
50672;BME280;46021;55.882;37.654;2023-01-19T08:17:34;99508.84;;;0.30;90.86
50672;BME280;46021;55.882;37.654;2023-01-19T08:20:03;99513.16;;;0.32;91.58
50672;BME280;46021;55.882;37.654;2023-01-19T08:22:31;99523.41;;;0.32;91.44
50672;BME280;46021;55.882;37.654;2023-01-19T08:24:58;99533.66;;;0.35;92.12
50672;BME280;46021;55.882;37.654;2023-01-19T08:27:25;99533.66;;;0.34;92.47
50672;BME280;46021;55.882;37.654;2023-01-19T08:29:52;99543.94;;;0.32;91.77
50672;BME280;46021;55.882;37.654;2023-01-19T08:32:20;99530.25;;;0.30;91.35
50672;BME280;46021;55.882;37.654;2023-01-19T08:34:47;99523.41;;;0.32;92.70
50672;BME280;46021;55.882;37.654;2023-01-19T08:37:15;99538.78;;;0.32;92.11
50672;BME280;46021;55.882;37.654;2023-01-19T08:39:42;99548.22;;;0.39;92.85
50672;BME280;46021;55.882;37.654;2023-01-19T08:42:09;99547.44;;;0.47;93.43
50672;BME280;46021;55.882;37.654;2023-01-19T08:44:36;99545.75;;;0.52;92.96
50672;BME280;46021;55.882;37.654;2023-01-19T08:47:03;99550.03;;;0.54;91.97
50672;BME280;46021;55.882;37.654;2023-01-19T08:49:30;99539.78;;;0.56;91.59
50672;BME280;46021;55.882;37.654;2023-01-19T08:51:57;99544.09;;;0.60;93.04
50672;BME280;46021;55.882;37.654;2023-01-19T08:54:26;99546.66;;;0.57;91.96
50672;BME280;46021;55.882;37.654;2023-01-19T08:56:53;99553.50;;;0.61;92.84
50672;BME280;46021;55.882;37.654;2023-01-19T08:59:20;99541.50;;;0.58;92.25
50672;BME280;46021;55.882;37.654;2023-01-19T09:01:47;99553.50;;;0.61;91.99
50672;BME280;46021;55.882;37.654;2023-01-19T09:04:14;99547.56;;;0.65;92.92
50672;BME280;46021;55.882;37.654;2023-01-19T09:06:41;99528.75;;;0.66;92.76
50672;BME280;46021;55.882;37.654;2023-01-19T09:09:08;99527.03;;;0.65;91.95
50672;BME280;46021;55.882;37.654;2023-01-19T09:11:36;99526.16;;;0.62;93.16
50672;BME280;46021;55.882;37.654;2023-01-19T09:14:03;99526.97;;;0.56;92.52
50672;BME280;46021;55.882;37.654;2023-01-19T09:16:31;99523.53;;;0.54;91.47
50672;BME280;46021;55.882;37.654;2023-01-19T09:18:58;99520.94;;;0.48;91.05
50672;BME280;46021;55.882;37.654;2023-01-19T09:21:25;99528.66;;;0.49;91.85
50672;BME280;46021;55.882;37.654;2023-01-19T09:23:53;99515.00;;;0.55;92.03
50672;BME280;46021;55.882;37.654;2023-01-19T09:26:20;99509.84;;;0.52;92.38
50672;BME280;46021;55.882;37.654;2023-01-19T09:28:49;99505.59;;;0.54;91.96
50672;BME280;46021;55.882;37.654;2023-01-19T09:31:16;99507.31;;;0.53;91.74
50672;BME280;46021;55.882;37.654;2023-01-19T09:33:43;99513.25;;;0.48;91.66
50672;BME280;46021;55.882;37.654;2023-01-19T09:36:10;99508.09;;;0.45;92.27
50672;BME280;46021;55.882;37.654;2023-01-19T09:38:37;99487.56;;;0.38;92.13
50672;BME280;46021;55.882;37.654;2023-01-19T09:41:13;99499.53;;;0.41;91.38
50672;BME280;46021;55.882;37.654;2023-01-19T09:43:45;99506.34;;;0.36;92.40
50672;BME280;46021;55.882;37.654;2023-01-19T09:46:18;99500.34;;;0.37;91.24
50672;BME280;46021;55.882;37.654;2023-01-19T09:48:50;99492.66;;;0.35;93.25
50672;BME280;46021;55.882;37.654;2023-01-19T09:51:19;99490.09;;;0.32;91.78
50672;BME280;46021;55.882;37.654;2023-01-19T09:53:58;99504.59;;;0.30;93.27
50672;BME280;46021;55.882;37.654;2023-01-19T09:56:27;99512.31;;;0.36;91.34
50672;BME280;46021;55.882;37.654;2023-01-19T09:58:54;99515.66;;;0.23;91.59
50672;BME280;46021;55.882;37.654;2023-01-19T10:01:34;99521.63;;;0.22;92.64
50672;BME280;46021;55.882;37.654;2023-01-19T10:04:30;99535.28;;;0.21;91.37
50672;BME280;46021;55.882;37.654;2023-01-19T10:07:15;99520.75;;;0.20;93.22
50672;BME280;46021;55.882;37.654;2023-01-19T10:09:58;99520.72;;;0.14;93.50
50672;BME280;46021;55.882;37.654;2023-01-19T10:12:38;99516.47;;;0.17;93.23
50672;BME280;46021;55.882;37.654;2023-01-19T10:15:16;99519.88;;;0.18;92.26
50672;BME280;46021;55.882;37.654;2023-01-19T10:17:54;99516.47;;;0.19;92.92
50672;BME280;46021;55.882;37.654;2023-01-19T10:20:27;99522.47;;;0.19;93.32
50672;BME280;46021;55.882;37.654;2023-01-19T10:22:58;99532.72;;;0.21;92.71
50672;BME280;46021;55.882;37.654;2023-01-19T10:25:25;99538.72;;;0.23;92.68
50672;BME280;46021;55.882;37.654;2023-01-19T10:27:53;99536.13;;;0.20;91.85
50672;BME280;46021;55.882;37.654;2023-01-19T10:30:22;99531.00;;;0.20;92.99
50672;BME280;46021;55.882;37.654;2023-01-19T10:32:52;99530.16;;;0.23;92.01
50672;BME280;46021;55.882;37.654;2023-01-19T10:35:22;99531.88;;;0.19;91.75
50672;BME280;46021;55.882;37.654;2023-01-19T10:37:50;99519.06;;;0.19;92.09
50672;BME280;46021;55.882;37.654;2023-01-19T10:40:27;99518.13;;;0.12;92.19
50672;BME280;46021;55.882;37.654;2023-01-19T10:42:56;99519.00;;;0.14;91.51
50672;BME280;46021;55.882;37.654;2023-01-19T10:45:25;99534.44;;;0.19;92.04
50672;BME280;46021;55.882;37.654;2023-01-19T10:47:57;99513.91;;;0.17;93.07
50672;BME280;46021;55.882;37.654;2023-01-19T10:50:27;99539.53;;;0.21;93.44
50672;BME280;46021;55.882;37.654;2023-01-19T10:52:57;99551.53;;;0.22;92.73
50672;BME280;46021;55.882;37.654;2023-01-19T10:55:27;99555.00;;;0.27;92.85
50672;BME280;46021;55.882;37.654;2023-01-19T10:57:55;99553.25;;;0.26;92.64
50672;BME280;46021;55.882;37.654;2023-01-19T11:00:31;99548.94;;;0.20;93.76
50672;BME280;46021;55.882;37.654;2023-01-19T11:03:00;99543.84;;;0.23;92.70
50672;BME280;46021;55.882;37.654;2023-01-19T11:05:29;99547.25;;;0.22;92.70
50672;BME280;46021;55.882;37.654;2023-01-19T11:07:56;99531.78;;;0.13;93.43
50672;BME280;46021;55.882;37.654;2023-01-19T11:10:25;99528.41;;;0.17;92.41
50672;BME280;46021;55.882;37.654;2023-01-19T11:12:56;99526.75;;;0.19;93.30
50672;BME280;46021;55.882;37.654;2023-01-19T11:15:29;99533.59;;;0.23;92.91
50672;BME280;46021;55.882;37.654;2023-01-19T11:17:57;99545.59;;;0.27;92.04
50672;BME280;46021;55.882;37.654;2023-01-19T11:20:28;99550.63;;;0.18;93.01
50672;BME280;46021;55.882;37.654;2023-01-19T11:23:04;99557.47;;;0.17;93.68
50672;BME280;46021;55.882;37.654;2023-01-19T11:25:33;99560.84;;;0.12;91.56
50672;BME280;46021;55.882;37.654;2023-01-19T11:28:02;99554.00;;;0.08;91.88
50672;BME280;46021;55.882;37.654;2023-01-19T11:30:29;99558.25;;;0.09;91.65
50672;BME280;46021;55.882;37.654;2023-01-19T11:32:57;99561.66;;;0.09;93.02
50672;BME280;46021;55.882;37.654;2023-01-19T11:35:32;99554.00;;;0.11;91.51
50672;BME280;46021;55.882;37.654;2023-01-19T11:38:14;99547.16;;;0.10;92.47
50672;BME280;46021;55.882;37.654;2023-01-19T11:40:50;99562.53;;;0.10;92.65
50672;BME280;46021;55.882;37.654;2023-01-19T11:43:18;99581.28;;;0.03;92.60
50672;BME280;46021;55.882;37.654;2023-01-19T11:45:46;99574.38;;;-0.05;91.92
50672;BME280;46021;55.882;37.654;2023-01-19T11:48:21;99578.59;;;-0.08;91.87
50672;BME280;46021;55.882;37.654;2023-01-19T11:50:51;99582.00;;;-0.11;91.88
50672;BME280;46021;55.882;37.654;2023-01-19T11:53:20;99584.56;;;-0.11;92.16
50672;BME280;46021;55.882;37.654;2023-01-19T11:58:19;99577.75;;;-0.09;91.64
50672;BME280;46021;55.882;37.654;2023-01-19T12:00:49;99566.59;;;-0.12;93.69
50672;BME280;46021;55.882;37.654;2023-01-19T12:03:21;99590.56;;;-0.07;92.60
50672;BME280;46021;55.882;37.654;2023-01-19T12:05:52;99576.91;;;-0.09;93.22
50672;BME280;46021;55.882;37.654;2023-01-19T12:08:24;99582.06;;;-0.05;93.53
50672;BME280;46021;55.882;37.654;2023-01-19T12:10:56;99587.19;;;-0.05;93.61
50672;BME280;46021;55.882;37.654;2023-01-19T12:13:26;99590.56;;;-0.07;93.02
50672;BME280;46021;55.882;37.654;2023-01-19T12:15:57;99613.63;;;-0.09;92.01
50672;BME280;46021;55.882;37.654;2023-01-19T12:18:28;99593.06;;;-0.12;92.46
50672;BME280;46021;55.882;37.654;2023-01-19T12:20:57;99607.56;;;-0.15;93.37
50672;BME280;46021;55.882;37.654;2023-01-19T12:23:32;99616.91;;;-0.19;93.69
50672;BME280;46021;55.882;37.654;2023-01-19T12:26:19;99630.56;;;-0.20;92.66
50672;BME280;46021;55.882;37.654;2023-01-19T12:28:53;99622.06;;;-0.16;91.61
50672;BME280;46021;55.882;37.654;2023-01-19T12:31:29;99640.88;;;-0.14;93.64
50672;BME280;46021;55.882;37.654;2023-01-19T12:34:35;99619.59;;;-0.11;93.53
50672;BME280;46021;55.882;37.654;2023-01-19T12:37:06;99626.44;;;-0.09;92.26
50672;BME280;46021;55.882;37.654;2023-01-19T12:39:53;99636.72;;;-0.04;93.42
50672;BME280;46021;55.882;37.654;2023-01-19T12:42:22;99629.88;;;-0.05;93.46
50672;BME280;46021;55.882;37.654;2023-01-19T12:44:52;99630.72;;;-0.05;92.27
50672;BME280;46021;55.882;37.654;2023-01-19T12:47:29;99624.75;;;-0.07;93.00
50672;BME280;46021;55.882;37.654;2023-01-19T12:50:03;99641.81;;;-0.07;92.59
50672;BME280;46021;55.882;37.654;2023-01-19T12:52:32;99629.75;;;-0.16;91.89
50672;BME280;46021;55.882;37.654;2023-01-19T12:55:15;99630.53;;;-0.26;92.44
50672;BME280;46021;55.882;37.654;2023-01-19T12:57:49;99641.59;;;-0.27;92.27
50672;BME280;46021;55.882;37.654;2023-01-19T13:00:31;99639.03;;;-0.27;92.86
50672;BME280;46021;55.882;37.654;2023-01-19T13:03:00;99633.88;;;-0.30;92.30
50672;BME280;46021;55.882;37.654;2023-01-19T13:05:50;99628.78;;;-0.27;93.33
50672;BME280;46021;55.882;37.654;2023-01-19T13:08:25;99626.16;;;-0.33;92.63